Reno (UNR), Valley Road, Nevada Weather observations

Data are for observation ending at time listed.
 Day   Time    Ave.   Ave.  Ave.  Vector   Max.    Total    Solar   Rl      Baro.   Ave.  
  of    of     Air    Rel.  Wind   Wind    Wind   Precip.   Rad.    in      Pres.   Soil  
Year   Day     Temp.  Hum.  Speed  Dir.    Gust                                     Temp. 
2015   (PST)    F      %     mph   deg.    mph      in.     W/m2    W/m2     mb.     F   
-----------------------------------------------------------------------------------------
  90    5:40   53.0    24    5.7   243      7.9     0.00       1     277    855.4   57.8
  90    5:50   53.4    21    5.6   246      9.4     0.00       3     276    855.4   57.8
  90    6:00   53.5    21    7.0   251     11.4     0.00       6     276    855.5   57.7
  90    6:10   53.5    21    6.8   246     10.9     0.00      11     277    855.5   57.6
  90    6:20   53.3    22    7.3   244     10.9     0.00      22     278    855.6   57.5
  90    6:30   53.8    22    6.4   247      9.7     0.00      93     278    855.6   57.5
  90    6:40   54.3    22    6.4   241      9.3     0.00     129     280    855.5   57.4
  90    6:50   55.0    21    5.9   244      8.7     0.00     160     281    855.5   57.3
  90    7:00   56.2    20    4.9   241      8.2     0.00     195     284    855.5   57.2
  90    7:10   58.7    17    4.8   223      7.9     0.00     228     289    855.3   57.1
  90    7:20   59.0    17    6.2   240      9.4     0.00     263     293    855.3   57.1
  90    7:30   59.6    16    5.9   237     11.7     0.00     299     293    855.2   57.0
  90    7:40   60.6    15    6.1   229      9.2     0.00     333     295    855.0   56.9
  90    7:50   60.9    14    6.5   252     10.7     0.00     369     298    855.0   56.9
  90    8:00   61.0    13    5.5   261     11.0     0.00     404     301    854.8   56.9
  90    8:10   61.2    14    7.2   268     11.7     0.00     440     302    854.7   56.9
  90    8:20   61.5    14    5.0   305      9.9     0.00     473     305    854.5   56.8
  90    8:30   62.3    14    5.4   312      9.7     0.00     507     308    854.4   56.9
  90    8:40   63.7    14    4.2   258     10.7     0.00     537     310    854.2   56.9
  90    8:50   64.4    13    3.2   202      7.5     0.00     567     312    854.0   56.9
  90    9:00   65.0    13    7.1   168     12.4     0.00     597     316    854.0   56.9
  90    9:10   65.7    13    3.6   185      9.7     0.00     626     316    853.9   56.9
  90    9:20   65.1    13    8.5   169     16.4     0.00     649     319    853.7   56.9
  90    9:30   64.7    13    6.1   200     12.4     0.00     679     318    853.7   56.9
  90    9:40   65.6    13    5.5   212     12.1     0.00     701     320    853.5   57.0
  90    9:50   65.8    13    6.0   244     13.0     0.00     729     321    853.5   57.0
  90   10:00   64.7    14    8.4   293     15.8     0.00     750     322    853.4   57.1
  90   10:10   64.4    15   10.0   265     19.9     0.00     764     319    853.4   57.2
  90   10:20   64.5    14   11.6   267     20.0     0.00     783     317    853.5   57.3
  90   10:30   64.3    14   12.8   269     27.4     0.00     804     317    853.5   57.5
  90   10:40   64.4    14   14.1   265     25.5     0.00     827     318    853.6   57.7
  90   10:50   64.3    13   13.5   262     25.4     0.00     839     315    853.8   57.8
  90   11:00   63.9    15   12.6   268     26.1     0.00     852     311    853.8   58.0
  90   11:10   63.7    15   12.4   275     25.3     0.00     861     307    853.7   58.3
  90   11:20   64.2    15   14.3   256     27.3     0.00     869     309    853.7   58.5
  90   11:30   64.0    15   12.8   250     20.9     0.00     877     310    853.7   58.7
  90   11:40   63.7    14   15.3   245     25.7     0.00     886     306    853.6   58.9
  90   11:50   64.8    13   11.9   238     23.9     0.00     895     314    853.4   59.2
  90   12:00   64.1    13   14.9   252     27.7     0.00     903     314    853.3   59.4
  90   12:10   64.6    11   15.2   246     28.1     0.00     902     313    853.2   59.6
  90   12:20   64.6    11   15.9   245     30.2     0.00     898     313    853.1   59.8
  90   12:30   64.6    10   18.5   233     31.9     0.00     902     310    853.1   60.0
  90   12:40   64.8    10   16.1   240     29.5     0.00     901     313    853.0   60.3
  90   12:50   64.8    11   14.0   233     26.6     0.00     894     313    852.9   60.5
  90   13:00   65.2    10   17.0   231     27.6     0.00     887     313    852.8   60.7
  90   13:10   65.0    11   14.6   234     25.6     0.00     871     312    852.8   60.9
  90   13:20   65.1    11   15.2   240     27.6     0.00     862     313    852.7   61.0
  90   13:30   64.9    11   14.2   246     26.2     0.00     843     313    852.6   61.2
  90   13:40   65.3    11   12.4   239     25.6     0.00     830     312    852.5   61.3
  90   13:50   64.9    11   16.8   244     27.9     0.00     817     311    852.5   61.4
  90   14:00   64.5    12   13.6   235     24.6     0.00     800     312    852.3   61.5
  90   14:10   64.7    12   14.8   240     28.5     0.00     779     313    852.2   61.6
  90   14:20   64.7    12   15.7   242     29.0     0.00     759     311    852.0   61.7
  90   14:30   63.9    12   16.4   240     25.7     0.00     739     309    851.9   61.8
  90   14:40   64.3    12   14.7   249     31.2     0.00     716     308    851.8   61.9
  90   14:50   63.8    12   17.1   251     32.5     0.00     692     307    851.7   62.0
  90   15:00   63.4    13   17.7   255     34.7     0.00     665     305    851.8   62.1
  90   15:10   63.3    12   15.6   254     32.2     0.00     639     305    851.8   62.2
  90   15:20   63.4    13   14.8   248     27.3     0.00     608     305    851.8   62.3
  90   15:30   62.7    14   16.6   262     38.4     0.00     580     304    851.9   62.3
  90   15:40   62.6    14   14.2   255     27.6     0.00     549     303    852.0   62.4
  90   15:50   62.2    14   15.1   254     27.7     0.00     517     301    852.2   62.5
  90   16:00   62.2    16   11.1   277     29.6     0.00     484     303    852.4   62.6
  90   16:10   61.1    18   16.4   267     35.8     0.00     450     302    852.7   62.6
  90   16:20   60.7    19   13.8   274     28.6     0.00     416     301    853.0   62.7
  90   16:30   60.4    19   13.4   283     22.7     0.00     378     300    853.3   62.7
  90   16:40   59.8    19   14.0   290     24.4     0.00     343     297    853.7   62.7
  90   16:50   59.0    20   15.1   291     28.4     0.00     306     298    853.9   62.8
  90   17:00   58.4    22   13.6   280     26.5     0.00     267     298    854.3   62.8
  90   17:10   57.5    26   13.8   264     25.5     0.00     231     296    854.6   62.8
  90   17:20   56.8    28   12.3   270     22.3     0.00     194     294    854.8   62.8
  90   17:30   56.0    31   11.1   270     23.8     0.00     156     297    855.2   62.7
  90   17:40   55.8    32    7.6   272     17.5     0.00     122     295    855.5   62.7
  90   17:50   54.6    34   10.7   279     18.7     0.00      88     291    855.9   62.7
  90   18:00   53.6    36   10.1   262     20.9     0.00      47     293    856.1   62.6
  90   18:10   52.6    37    6.8   306     15.0     0.00      19     289    856.5   62.6
  90   18:20   51.9    36    9.0   285     16.9     0.00      10     285    856.8   62.5
  90   18:30   51.5    37    8.3   283     16.1     0.00       4     288    857.1   62.5
  90   18:40   51.0    37    8.8   272     15.7     0.00       1     283    857.3   62.4
  90   18:50   50.6    37   10.3   262     17.2     0.00       0     280    857.3   62.3
  90   19:00   50.3    38    9.2   267     18.0     0.00       0     279    857.5   62.2
  90   19:10   49.9    39    8.2   265     15.2     0.00       0     278    857.8   62.1
  90   19:20   49.5    40    6.2   281     11.0     0.00       0     280    858.0   62.0
  90   19:30   49.0    40    7.2   296     11.6     0.00       0     280    858.3   61.9
  90   19:40   48.5    39    8.3   303     15.2     0.00       0     274    858.6   61.7
  90   19:50   48.4    39    9.9   303     15.7     0.00       0     272    858.9   61.6
  90   20:00   48.0    39    7.0   301     11.2     0.00       0     278    859.2   61.5
  90   20:10   47.6    40    4.7   311      9.2     0.00       0     277    859.5   61.4
  90   20:20   46.5    42    5.4   332      9.3     0.00       0     274    859.8   61.2
  90   20:30   46.7    41    7.1   302     11.9     0.00       0     273    859.9   61.1
  90   20:40   46.6    41    5.8   287      9.6     0.00       0     272    860.0   61.0
  90   20:50   46.3    42    3.4   278      8.0     0.00       0     271    860.2   60.9
  90   21:00   45.8    42    4.0   273      7.1     0.00       0     271    860.4   60.7
  90   21:10   45.6    43    5.1   270      8.7     0.00       0     270    860.5   60.6
  90   21:20   45.0    43    5.0   303      7.5     0.00       0     267    860.6   60.5
  90   21:30   43.8    43    4.9   336      7.6     0.00       0     266    860.7   60.3
  90   21:40   43.8    42    5.8   334     10.9     0.00       0     265    860.9   60.2
  90   21:50   43.6    43    6.0   340     12.5     0.00       0     265    861.2   60.1
  90   22:00   43.1    45    5.4   333      8.6     0.00       0     262    861.3   59.9
  90   22:10   42.6    48    6.0   320     10.5     0.00       0     262    861.5   59.8
  90   22:20   42.1    50    6.4   331     10.2     0.00       0     262    861.7   59.7
  90   22:30   41.5    52    7.5   331     10.8     0.00       0     258    861.9   59.5
  90   22:40   41.2    54    8.5   323     12.8     0.00       0     258    862.1   59.4
  90   22:50   41.1    55   10.7   322     16.9     0.00       0     258    862.1   59.3
  90   23:00   40.3    57    9.0   334     16.0     0.00       0     259    862.2   59.2
  90   23:10   39.7    58    7.5   340     13.0     0.00       0     261    862.5   59.0
  90   23:20   39.4    59    6.9   338     10.6     0.00       0     263    862.6   58.9
  90   23:30   39.1    59    6.7   337      9.6     0.00       0     261    862.7   58.8
  90   23:40   38.5    60    4.9     0      7.6     0.00       0     258    862.8   58.7
  90   23:50   37.9    61    5.3   358      8.0     0.00       0     256    862.9   58.5
  91    0:00   38.0    60    5.2   346      7.6     0.00       0     254    863.1   58.4
  91    0:10   38.1    59    5.0   327      9.5     0.00       0     254    863.2   58.3
  91    0:20   38.1    58    7.3   325     11.5     0.00       0     259    863.3   58.2
  91    0:30   37.7    58    7.1   327     13.2     0.00       0     256    863.3   58.1
  91    0:40   37.3    59    7.2   325     12.7     0.00       0     254    863.3   57.9
  91    0:50   37.1    59    5.6   323      9.0     0.00       0     254    863.3   57.8
  91    1:00   37.5    58    4.9   313      7.3     0.00       0     254    863.4   57.7
  91    1:10   37.2    58    4.8   318      7.2     0.00       0     256    863.4   57.6
  91    1:20   37.0    59    5.3   320      9.0     0.00       0     252    863.5   57.5
  91    1:30   36.8    58    6.3   315      9.1     0.00       0     255    863.4   57.3
  91    1:40   36.7    58    4.9   309      7.6     0.00       0     251    863.4   57.2
  91    1:50   36.6    58    3.3   297      5.0     0.00       0     250    863.2   57.1
  91    2:00   36.2    59    1.8   311      5.2     0.00       0     248    863.0   57.0
  91    2:10   36.0    59    1.7   281      5.1     0.00       0     250    863.0   56.9
  91    2:20   36.1    59    3.1   288      7.1     0.00       0     248    862.9   56.8
  91    2:30   35.7    59    2.4   304      4.6     0.00       0     252    862.9   56.7
  91    2:40   35.3    60    2.1   300      4.1     0.00       0     247    862.9   56.6
  91    2:50   34.7    61    0.4   350      1.7     0.00       0     250    862.9   56.4
  91    3:00   33.6    64    0.0     0      0.0     0.00       0     246    862.8   56.3
  91    3:10   33.1    65    0.0     0      0.0     0.00       0     243    862.8   56.2
  91    3:20   32.7    68    0.0     0      0.0     0.00       0     244    862.9   56.1
  91    3:30   32.3    69    1.2    11      2.2     0.00       0     243    862.9   56.0
  91    3:40   31.9    70    1.1   278      2.2     0.00       0     240    863.0   55.9
  91    3:50   32.0    70    1.6   346      2.5     0.00       0     241    863.0   55.8
  91    4:00   31.8    71    1.7   318      2.4     0.00       0     243    863.0   55.7
  91    4:10   31.4    72    1.2   270      2.3     0.00       0     239    863.0   55.5
  91    4:20   31.3    71    1.2   263      1.9     0.00       0     240    863.0   55.4
  91    4:30   31.4    70    0.9   292      2.0     0.00       0     240    863.0   55.3
  91    4:40   31.0    71    0.2   314      1.2     0.00       0     236    863.1   55.2
  91    4:50   30.4    72    0.1   281      1.2     0.00       0     238    863.1   55.0
  91    5:00   30.4    73    1.1   332      2.6     0.00       0     239    863.0   54.9
  91    5:10   29.9    74    0.0     0      0.0     0.00       0     247    863.0   54.8
  91    5:20   29.6    74    0.3   312      1.5     0.00       0     263    863.1   54.7
  91    5:30   30.6    72    1.5   320      1.9     0.00       0     246    863.0   54.6

Return to Reno (UNR), Nevada graphs page.


Western Regional Climate Center,wrcc@dri.edu